Terminal Aerodrome Forecast
Issued by NWS

Home | Current Version | Previous Version | Text Only | Print | Product List | Glossary On
Versions: 1 2 3 4 5 6 7 8 9 10 11 12 13 14 15 16 17 18
000
FTUS41 KGYX 031733 AAA
TAFAUG
TAF AMD
KAUG 031733Z 0318/0418 32009G17KT 1 1/2SM TSRA BKN035CB
     FM031900 01008KT P6SM BKN050
     FM040000 01008KT P6SM SCT100
     FM040400 04005KT P6SM SKC=

USA.gov is the U.S. government's official web portal to all federal, state and local government web resources and services.